Time;durP1;ratioP1;P1;durP2;ratioP2;P2;SDS_P1;SDS_P2;PMS_P1;PMS_P2;Temp;Humidity;BMP_temperature;BMP_pressure;BME280_temperature;BME280_humidity;BME280_pressure;Samples;Min_cycle;Max_cycle;Signal;HPM_P1;HPM_P2
2023/01/05 00:02:13;;;;;;;18.20;4.82;;;10.70;85.80;;;;;;5114793;27;20038;-73
2023/01/05 00:04:39;;;;;;;24.48;5.97;;;10.70;85.90;;;;;;5115376;27;20398;-73
2023/01/05 00:07:04;;;;;;;23.75;4.32;;;10.70;85.80;;;;;;5132613;27;20039;-73
2023/01/05 00:09:30;;;;;;;22.02;4.40;;;10.70;85.80;;;;;;5132733;27;20086;-73
2023/01/05 00:23:05;;;;;;;21.23;5.13;;;10.70;85.50;;;;;;5138946;27;20127;-73
2023/01/05 00:25:35;;;;;;;27.10;5.25;;;10.70;85.40;;;;;;5139607;27;20046;-73
2023/01/05 00:28:01;;;;;;;23.05;4.57;;;10.70;85.30;;;;;;5139090;27;20039;-73
2023/01/05 00:30:34;;;;;;;23.48;4.57;;;10.70;85.20;;;;;;5122381;27;20042;-73
2023/01/05 00:33:00;;;;;;;17.63;3.97;;;10.70;85.00;;;;;;5121598;27;20494;-73
2023/01/05 00:35:28;;;;;;;22.27;4.97;;;10.70;84.90;;;;;;5139405;27;20081;-73
2023/01/05 00:37:54;;;;;;;22.10;4.70;;;10.70;84.70;;;;;;5121926;27;20047;-73
2023/01/05 00:40:20;;;;;;;17.35;3.78;;;10.70;84.70;;;;;;5139170;27;20039;-73
2023/01/05 00:42:46;;;;;;;21.73;4.35;;;10.60;84.50;;;;;;5138955;27;20035;-73
2023/01/05 00:45:14;;;;;;;25.00;5.15;;;10.70;84.40;;;;;;5139034;27;20096;-73
2023/01/05 00:47:40;;;;;;;23.13;5.00;;;10.70;84.40;;;;;;5138850;27;20082;-73
2023/01/05 00:50:07;;;;;;;25.00;4.47;;;10.60;84.10;;;;;;5138755;27;20508;-73
2023/01/05 00:52:33;;;;;;;20.35;4.00;;;10.60;84.00;;;;;;5138823;27;20076;-73
2023/01/05 00:54:59;;;;;;;23.17;5.63;;;10.60;84.00;;;;;;5105089;27;20091;-73
2023/01/05 00:57:25;;;;;;;23.02;4.72;;;10.60;84.00;;;;;;5138819;27;20320;-73
2023/01/05 00:59:50;;;;;;;20.08;4.50;;;10.60;83.90;;;;;;5138949;27;20039;-73
2023/01/05 01:02:16;;;;;;;18.23;4.72;;;10.60;83.80;;;;;;5121131;27;20405;-73
2023/01/05 01:04:42;;;;;;;22.85;5.18;;;10.60;83.80;;;;;;5138663;27;20067;-73
2023/01/05 01:07:07;;;;;;;19.33;5.20;;;10.60;83.70;;;;;;5139015;27;20063;-73
2023/01/05 01:09:33;;;;;;;19.05;4.72;;;10.50;83.70;;;;;;5138948;27;20499;-73
2023/01/05 01:11:59;;;;;;;26.20;5.25;;;10.50;83.70;;;;;;5121928;27;20069;-73
2023/01/05 01:14:25;;;;;;;24.88;5.40;;;10.50;83.80;;;;;;5121644;27;20039;-73
2023/01/05 01:16:51;;;;;;;24.42;5.50;;;10.50;83.70;;;;;;5121933;27;20081;-73
2023/01/05 01:19:20;;;;;;;25.23;4.18;;;10.50;83.70;;;;;;5138812;27;20435;-73
2023/01/05 01:21:46;;;;;;;22.00;5.38;;;10.50;83.70;;;;;;5121640;27;20074;-73
2023/01/05 01:24:17;;;;;;;29.45;5.32;;;10.50;83.70;;;;;;5138448;27;20590;-73
2023/01/05 01:26:43;;;;;;;21.23;4.90;;;10.50;83.80;;;;;;5138866;27;20126;-73
2023/01/05 01:29:09;;;;;;;19.58;4.30;;;10.50;83.70;;;;;;5138798;27;20046;-73
2023/01/05 01:31:36;;;;;;;23.52;4.88;;;10.50;83.70;;;;;;5121919;27;20055;-73
2023/01/05 01:34:02;;;;;;;19.15;4.22;;;10.50;83.70;;;;;;5134613;27;20050;-73
2023/01/05 01:36:28;;;;;;;24.77;4.13;;;10.50;83.60;;;;;;5135688;27;20053;-73
2023/01/05 01:38:54;;;;;;;28.55;5.35;;;10.50;83.60;;;;;;5116227;27;20429;-73
2023/01/05 01:41:19;;;;;;;20.65;4.20;;;10.50;83.60;;;;;;5117920;27;20039;-73
2023/01/05 01:43:48;;;;;;;22.15;4.90;;;10.50;83.50;;;;;;5097872;27;20038;-73
2023/01/05 01:46:15;;;;;;;22.40;4.72;;;10.50;83.60;;;;;;5132154;27;20126;-73
2023/01/05 01:48:55;;;;;;;21.88;4.85;;;10.50;83.60;;;;;;5141472;27;20039;-74
2023/01/05 01:51:43;;;;;;;20.13;4.40;;;10.50;83.50;;;;;;5135288;27;20047;-74
2023/01/05 01:54:12;;;;;;;22.55;4.35;;;10.50;83.40;;;;;;5134889;27;20066;-74
2023/01/05 01:56:44;;;;;;;26.08;5.38;;;10.50;83.50;;;;;;5151701;27;20075;-75
2023/01/05 01:59:10;;;;;;;16.52;4.63;;;10.50;83.50;;;;;;5134920;27;20080;-75
2023/01/05 02:01:36;;;;;;;22.52;6.03;;;10.50;83.60;;;;;;5135028;27;20039;-75
2023/01/05 02:04:03;;;;;;;18.42;4.65;;;10.50;83.60;;;;;;5134562;27;20095;-75
2023/01/05 02:06:29;;;;;;;20.02;3.75;;;10.50;83.60;;;;;;5135248;27;20042;-75
2023/01/05 02:08:55;;;;;;;26.52;4.25;;;10.50;83.60;;;;;;5134778;27;20355;-75
2023/01/05 02:12:02;;;;;;;24.60;5.20;;;10.50;83.50;;;;;;5117504;27;20118;-75
2023/01/05 02:14:35;;;;;;;21.42;4.57;;;10.50;83.20;;;;;;5102725;27;20043;-75
2023/01/05 02:17:16;;;;;;;26.93;5.70;;;10.50;83.60;;;;;;5117788;27;20375;-74
2023/01/05 02:19:51;;;;;;;24.33;5.80;;;10.40;83.30;;;;;;5134241;27;20072;-74
2023/01/05 02:22:29;;;;;;;23.17;4.63;;;10.40;83.30;;;;;;5117411;27;20046;-74
2023/01/05 02:25:28;;;;;;;18.67;4.05;;;10.40;83.30;;;;;;5134028;27;20071;-74
2023/01/05 02:28:30;;;;;;;21.88;4.03;;;10.40;83.30;;;;;;5134384;27;20043;-74
2023/01/05 02:31:18;;;;;;;21.10;4.72;;;10.40;83.20;;;;;;5132635;27;20171;-74
2023/01/05 02:33:53;;;;;;;16.88;4.13;;;10.40;83.30;;;;;;5134561;27;20379;-74
2023/01/05 02:36:19;;;;;;;21.80;4.95;;;10.40;83.20;;;;;;5134006;27;20112;-74
2023/01/05 02:39:14;;;;;;;21.95;4.97;;;10.40;83.20;;;;;;5116894;27;20047;-74
2023/01/05 02:41:52;;;;;;;21.95;4.70;;;10.40;83.10;;;;;;5134601;27;20083;-74
2023/01/05 02:44:19;;;;;;;19.67;4.40;;;10.40;83.20;;;;;;5132964;27;20542;-74
2023/01/05 02:46:45;;;;;;;24.77;4.93;;;10.40;83.20;;;;;;5133705;27;20039;-74
2023/01/05 02:49:16;;;;;;;27.27;5.40;;;10.40;83.20;;;;;;5133958;27;20039;-74
2023/01/05 02:51:48;;;;;;;24.35;4.95;;;10.40;83.20;;;;;;5133900;27;20047;-74
2023/01/05 02:54:23;;;;;;;26.10;5.10;;;10.40;83.10;;;;;;5133879;27;20398;-74
2023/01/05 02:57:11;;;;;;;20.98;4.47;;;10.40;83.10;;;;;;5134109;27;20043;-74
2023/01/05 02:59:40;;;;;;;21.67;4.53;;;10.40;83.10;;;;;;5133900;27;20047;-74
2023/01/05 03:02:21;;;;;;;20.48;5.13;;;10.40;83.20;;;;;;5133503;27;20039;-74
2023/01/05 03:05:03;;;;;;;21.35;5.43;;;10.40;83.20;;;;;;5133551;27;20574;-74
2023/01/05 03:07:32;;;;;;;20.70;5.05;;;10.40;83.30;;;;;;5133929;27;20039;-75
2023/01/05 03:13:39;;;;;;;22.75;4.28;;;10.40;83.30;;;;;;5134039;27;20043;-75
2023/01/05 03:15:33;;;;;;;24.42;5.30;;;10.40;83.40;;;;;;5133388;27;20096;-74
2023/01/05 03:18:16;;;;;;;28.83;5.25;;;10.40;83.30;;;;;;5133764;27;20047;-73
2023/01/05 03:20:47;;;;;;;21.23;3.95;;;10.40;83.30;;;;;;5115928;27;20051;-73
2023/01/05 03:37:56;;;;;;;23.70;4.88;;;10.40;83.50;;;;;;5132567;27;20180;-73
2023/01/05 03:40:27;;;;;;;27.98;4.63;;;10.40;83.50;;;;;;5133224;27;20505;-73
2023/01/05 03:42:54;;;;;;;27.23;5.32;;;10.40;83.50;;;;;;5132813;27;20047;-73
2023/01/05 03:45:21;;;;;;;28.92;5.75;;;10.40;83.50;;;;;;5115355;27;20063;-73
2023/01/05 03:47:48;;;;;;;24.00;4.93;;;10.40;83.50;;;;;;5133211;27;20031;-73
2023/01/05 03:50:13;;;;;;;25.73;5.10;;;10.40;83.50;;;;;;5132991;27;20054;-73
2023/01/05 03:52:39;;;;;;;23.90;4.45;;;10.40;83.50;;;;;;5114816;27;20038;-73
2023/01/05 03:55:05;;;;;;;23.85;5.95;;;10.40;83.50;;;;;;5132771;27;20139;-72
2023/01/05 03:57:31;;;;;;;18.67;4.10;;;10.40;83.40;;;;;;5132661;27;20039;-73
2023/01/05 03:59:56;;;;;;;23.15;4.72;;;10.40;83.40;;;;;;5132538;27;20393;-73
2023/01/05 04:02:22;;;;;;;24.00;4.43;;;10.40;83.40;;;;;;5132882;27;20031;-73
2023/01/05 04:04:48;;;;;;;21.10;5.35;;;10.40;83.40;;;;;;5132423;27;20177;-73
2023/01/05 04:07:13;;;;;;;22.48;4.93;;;10.40;83.40;;;;;;5132764;27;20043;-73
2023/01/05 04:09:39;;;;;;;24.45;4.55;;;10.40;83.40;;;;;;5132849;27;20470;-73
2023/01/05 04:12:05;;;;;;;20.13;3.70;;;10.40;83.40;;;;;;5132741;27;20484;-73
2023/01/05 04:14:31;;;;;;;23.45;4.72;;;10.40;83.40;;;;;;5132339;27;20092;-73
2023/01/05 04:16:56;;;;;;;17.30;4.70;;;10.40;83.40;;;;;;5115532;28;20039;-73
2023/01/05 04:19:22;;;;;;;23.35;5.82;;;10.40;83.40;;;;;;5115259;28;20505;-73
2023/01/05 04:21:48;;;;;;;19.40;4.22;;;10.40;83.40;;;;;;5132554;27;20079;-73
2023/01/05 04:24:13;;;;;;;23.33;4.97;;;10.40;83.40;;;;;;5115512;28;20066;-73
2023/01/05 04:26:40;;;;;;;27.85;4.43;;;10.40;83.40;;;;;;5132041;28;20031;-73
2023/01/05 04:29:09;;;;;;;19.00;4.47;;;10.40;83.50;;;;;;5132087;28;20047;-72
2023/01/05 04:31:35;;;;;;;22.80;5.43;;;10.40;83.50;;;;;;5132402;28;20039;-73
2023/01/05 04:34:00;;;;;;;23.55;4.50;;;10.40;83.50;;;;;;5132264;27;20455;-73
2023/01/05 04:36:26;;;;;;;22.88;4.63;;;10.40;83.50;;;;;;5094731;28;20084;-72
2023/01/05 04:38:52;;;;;;;17.92;4.38;;;10.40;83.60;;;;;;5111803;28;20040;-73
2023/01/05 04:41:17;;;;;;;23.67;4.57;;;10.40;83.70;;;;;;5094863;28;20043;-73
2023/01/05 04:43:43;;;;;;;20.77;3.70;;;10.40;83.70;;;;;;5112806;28;20387;-73
2023/01/05 04:46:09;;;;;;;26.50;5.00;;;10.40;83.70;;;;;;5113182;28;20044;-73
2023/01/05 04:48:34;;;;;;;20.75;4.10;;;10.40;83.80;;;;;;5129093;27;20039;-72
2023/01/05 04:51:00;;;;;;;18.38;3.90;;;10.40;83.80;;;;;;5115590;28;20039;-73
2023/01/05 04:53:26;;;;;;;21.20;4.72;;;10.40;84.20;;;;;;5132421;28;20035;-73
2023/01/05 04:55:52;;;;;;;18.88;3.22;;;10.40;83.90;;;;;;5131791;27;20042;-73
2023/01/05 04:58:18;;;;;;;25.40;5.07;;;10.40;83.80;;;;;;5114874;28;20084;-73
2023/01/05 05:00:44;;;;;;;25.13;6.00;;;10.40;83.80;;;;;;5131500;27;20077;-73
2023/01/05 05:03:09;;;;;;;22.80;4.30;;;10.40;83.80;;;;;;5115342;28;20078;-73
2023/01/05 05:05:35;;;;;;;28.48;5.03;;;10.40;83.90;;;;;;5139797;27;20483;-72
2023/01/05 05:08:01;;;;;;;19.02;4.43;;;10.40;83.90;;;;;;5112391;28;20098;-73
2023/01/05 05:10:27;;;;;;;22.33;4.65;;;10.40;84.30;;;;;;5115391;28;20043;-73
2023/01/05 05:12:52;;;;;;;26.17;4.95;;;10.40;83.90;;;;;;5123818;27;20037;-73
2023/01/05 05:15:18;;;;;;;18.80;4.75;;;10.40;83.90;;;;;;5135839;27;20035;-73
2023/01/05 05:17:44;;;;;;;26.30;4.45;;;10.40;84.00;;;;;;5135288;27;20039;-73
2023/01/05 05:20:10;;;;;;;25.73;5.28;;;10.40;84.40;;;;;;5118603;27;20039;-73
2023/01/05 05:22:36;;;;;;;18.33;4.43;;;10.40;83.90;;;;;;5118793;27;20039;-73
2023/01/05 05:25:02;;;;;;;17.05;3.97;;;10.40;83.90;;;;;;5135301;27;20039;-73
2023/01/05 05:27:28;;;;;;;26.50;3.90;;;10.40;84.00;;;;;;5135917;27;20054;-72
2023/01/05 05:29:53;;;;;;;22.00;4.45;;;10.40;84.00;;;;;;5135538;27;20085;-72
2023/01/05 05:32:19;;;;;;;18.08;4.07;;;10.40;84.00;;;;;;5118525;27;20074;-73
2023/01/05 05:34:44;;;;;;;18.95;4.22;;;10.40;84.00;;;;;;5117298;27;20367;-73
2023/01/05 05:37:10;;;;;;;16.35;3.33;;;10.40;84.00;;;;;;5135341;27;20134;-73
2023/01/05 05:39:36;;;;;;;23.67;5.07;;;10.40;84.00;;;;;;5135274;27;20042;-72
2023/01/05 05:42:01;;;;;;;27.33;5.20;;;10.40;84.00;;;;;;5135427;27;20043;-73
2023/01/05 05:44:27;;;;;;;22.65;5.00;;;10.40;84.00;;;;;;5118311;27;20118;-73
2023/01/05 05:46:53;;;;;;;26.02;5.18;;;10.40;83.90;;;;;;5117840;27;20509;-73
2023/01/05 05:49:18;;;;;;;18.40;5.30;;;10.40;83.90;;;;;;5117917;27;20541;-73
2023/01/05 05:51:44;;;;;;;22.95;4.57;;;10.40;83.90;;;;;;5135019;27;20055;-72
2023/01/05 05:54:10;;;;;;;17.98;4.25;;;10.40;83.90;;;;;;5135203;27;20050;-73
2023/01/05 05:56:35;;;;;;;25.38;4.07;;;10.40;84.00;;;;;;5134792;27;20070;-73
2023/01/05 05:59:01;;;;;;;23.48;5.10;;;10.40;84.10;;;;;;5134842;27;20043;-73
2023/01/05 06:01:27;;;;;;;25.27;5.53;;;10.40;84.00;;;;;;5134974;27;20050;-73
2023/01/05 06:03:52;;;;;;;19.88;5.65;;;10.40;84.10;;;;;;5117789;27;20501;-73
2023/01/05 06:06:18;;;;;;;20.25;4.38;;;10.40;84.10;;;;;;5117379;27;20036;-73
2023/01/05 06:08:44;;;;;;;28.05;4.65;;;10.40;84.10;;;;;;5118150;27;20046;-73
2023/01/05 06:11:09;;;;;;;21.10;4.63;;;10.40;84.10;;;;;;5134872;27;20047;-73
2023/01/05 06:13:35;;;;;;;18.58;5.18;;;10.40;84.10;;;;;;5117608;27;20394;-74
2023/01/05 06:16:01;;;;;;;23.35;4.97;;;10.40;84.10;;;;;;5134435;27;20043;-74
2023/01/05 06:18:27;;;;;;;22.13;4.78;;;10.40;84.10;;;;;;5117415;27;20043;-74
2023/01/05 06:20:53;;;;;;;17.27;4.18;;;10.40;84.10;;;;;;5117326;27;20062;-74
2023/01/05 06:23:19;;;;;;;21.15;4.53;;;10.40;84.10;;;;;;5134233;27;20039;-74
2023/01/05 06:25:45;;;;;;;27.02;4.22;;;10.40;84.10;;;;;;5134353;27;20038;-74
2023/01/05 06:28:11;;;;;;;20.30;3.67;;;10.40;84.10;;;;;;5117168;27;20067;-74
2023/01/05 06:30:36;;;;;;;21.95;4.63;;;10.40;84.10;;;;;;5134100;27;20549;-74
2023/01/05 06:33:02;;;;;;;19.98;4.93;;;10.40;84.10;;;;;;5133638;27;20126;-74
2023/01/05 06:35:28;;;;;;;23.13;4.53;;;10.40;84.10;;;;;;5116907;27;20064;-74
2023/01/05 06:37:54;;;;;;;20.88;4.55;;;10.40;84.10;;;;;;5134807;27;20051;-74
2023/01/05 06:40:20;;;;;;;23.58;5.25;;;10.40;84.10;;;;;;5134521;27;20039;-74
2023/01/05 06:42:45;;;;;;;23.38;4.80;;;10.40;84.00;;;;;;5134114;27;20035;-74
2023/01/05 06:45:13;;;;;;;27.27;6.43;;;10.40;84.00;;;;;;5117205;27;20039;-74
2023/01/05 06:47:39;;;;;;;22.70;4.38;;;10.30;83.90;;;;;;5134298;27;20035;-74
2023/01/05 06:50:05;;;;;;;27.38;5.30;;;10.30;83.90;;;;;;5116489;27;20045;-74
2023/01/05 06:52:35;;;;;;;22.15;4.22;;;10.30;83.90;;;;;;5117001;27;20427;-74
2023/01/05 06:55:08;;;;;;;25.65;6.00;;;10.30;84.00;;;;;;5134166;27;20055;-74
2023/01/05 06:57:35;;;;;;;24.55;4.32;;;10.30;84.10;;;;;;5134101;27;20043;-74
2023/01/05 07:00:05;;;;;;;21.63;4.10;;;10.30;84.10;;;;;;5133600;27;20047;-74
2023/01/05 07:02:31;;;;;;;19.83;4.15;;;10.30;84.20;;;;;;5117509;27;20478;-75
2023/01/05 07:04:56;;;;;;;20.65;4.15;;;10.30;84.70;;;;;;5116619;27;20038;-75
2023/01/05 07:07:22;;;;;;;26.30;4.72;;;10.30;84.30;;;;;;5133759;27;20037;-75
2023/01/05 07:09:48;;;;;;;23.80;4.28;;;10.30;84.40;;;;;;5116898;27;20043;-74
2023/01/05 07:12:15;;;;;;;19.17;4.65;;;10.30;84.40;;;;;;5133901;27;20053;-74
2023/01/05 07:14:41;;;;;;;24.42;3.95;;;10.30;84.40;;;;;;5116981;27;20039;-74
2023/01/05 07:17:07;;;;;;;26.17;4.47;;;10.30;84.50;;;;;;5111989;27;20509;-74
2023/01/05 07:19:32;;;;;;;21.42;4.47;;;10.30;84.50;;;;;;5133057;27;20047;-74
2023/01/05 07:21:58;;;;;;;19.85;4.57;;;10.30;84.50;;;;;;5116133;27;20039;-74
2023/01/05 07:24:24;;;;;;;22.75;4.05;;;10.30;84.60;;;;;;5133323;27;20046;-72
2023/01/05 07:26:50;;;;;;;21.25;4.18;;;10.30;84.60;;;;;;5133324;27;20031;-72
2023/01/05 07:29:16;;;;;;;24.08;4.22;;;10.30;84.60;;;;;;5133561;27;20054;-72
2023/01/05 07:31:41;;;;;;;19.58;4.97;;;10.30;84.60;;;;;;5131741;27;20035;-73
2023/01/05 07:34:08;;;;;;;24.25;4.95;;;10.30;84.70;;;;;;5132928;27;20082;-72
2023/01/05 07:36:34;;;;;;;20.17;3.60;;;10.30;84.70;;;;;;5115921;27;20054;-72
2023/01/05 07:38:59;;;;;;;24.23;4.22;;;10.30;84.70;;;;;;5133031;27;20382;-72
2023/01/05 07:41:25;;;;;;;21.60;5.00;;;10.30;84.70;;;;;;5132818;27;20050;-72
2023/01/05 07:43:51;;;;;;;16.38;4.13;;;10.30;84.70;;;;;;5132982;27;20164;-72
2023/01/05 07:46:17;;;;;;;21.60;4.10;;;10.30;84.70;;;;;;5132558;27;20046;-72
2023/01/05 07:48:42;;;;;;;19.40;4.20;;;10.30;84.80;;;;;;5115911;27;20062;-72
2023/01/05 07:51:09;;;;;;;20.42;4.50;;;10.30;84.80;;;;;;5133134;27;20133;-72
2023/01/05 07:53:37;;;;;;;17.52;3.90;;;10.30;84.90;;;;;;5132518;27;20091;-72
2023/01/05 07:56:04;;;;;;;22.15;5.00;;;10.30;84.90;;;;;;5132972;27;20049;-72
2023/01/05 07:58:31;;;;;;;19.88;4.10;;;10.30;84.90;;;;;;5132564;27;20151;-72
2023/01/05 08:00:56;;;;;;;24.70;5.03;;;10.30;84.90;;;;;;5132734;27;20126;-72
2023/01/05 08:03:22;;;;;;;20.92;4.20;;;10.30;84.90;;;;;;5115715;27;20118;-72
2023/01/05 08:05:48;;;;;;;20.10;4.40;;;10.30;84.90;;;;;;5132780;27;20478;-72
2023/01/05 08:08:14;;;;;;;21.77;4.32;;;10.30;84.90;;;;;;5115544;27;20126;-72
2023/01/05 08:10:41;;;;;;;17.85;4.40;;;10.30;84.90;;;;;;5131961;27;20053;-72
2023/01/05 08:15:54;;;;;;;24.33;5.50;;;10.30;85.00;;;;;;5132348;27;20072;-72
2023/01/05 08:18:21;;;;;;;17.63;3.47;;;10.30;85.00;;;;;;5132661;27;20039;-72
2023/01/05 08:20:55;;;;;;;22.83;3.67;;;10.30;84.90;;;;;;5132412;27;20496;-71
2023/01/05 08:23:25;;;;;;;20.27;4.35;;;10.30;84.90;;;;;;5132897;27;20096;-72
2023/01/05 08:25:51;;;;;;;19.15;4.03;;;10.30;85.00;;;;;;5132455;28;20027;-72
2023/01/05 08:28:17;;;;;;;18.35;3.65;;;10.30;85.40;;;;;;5132327;27;20435;-72
2023/01/05 08:30:42;;;;;;;21.52;4.88;;;10.30;85.00;;;;;;5115340;28;20039;-72
2023/01/05 08:33:08;;;;;;;22.67;4.75;;;10.30;85.00;;;;;;5115444;28;20035;-72
2023/01/05 08:35:39;;;;;;;23.27;4.20;;;10.30;85.00;;;;;;5132964;28;20039;-71
2023/01/05 08:38:04;;;;;;;17.08;3.40;;;10.30;85.00;;;;;;5115497;28;20398;-72
2023/01/05 08:40:30;;;;;;;20.27;4.05;;;10.30;85.00;;;;;;5132134;27;20039;-72
2023/01/05 08:42:56;;;;;;;16.73;4.15;;;10.30;85.00;;;;;;5134379;27;20605;-72
2023/01/05 08:45:22;;;;;;;20.48;4.45;;;10.30;85.00;;;;;;5136017;27;20482;-72
2023/01/05 08:47:47;;;;;;;22.27;4.85;;;10.30;85.00;;;;;;5153692;27;20042;-72
2023/01/05 08:50:13;;;;;;;19.48;4.13;;;10.30;84.90;;;;;;5136575;27;20516;-72
2023/01/05 08:52:39;;;;;;;15.65;3.90;;;10.30;85.00;;;;;;5136477;27;20553;-72
2023/01/05 08:55:06;;;;;;;20.00;4.30;;;10.30;85.00;;;;;;5136652;27;20428;-72
2023/01/05 08:57:33;;;;;;;24.13;3.97;;;10.30;85.00;;;;;;5136323;27;20096;-72
2023/01/05 08:59:59;;;;;;;19.13;4.05;;;10.30;85.00;;;;;;5118540;27;20118;-72
2023/01/05 09:02:25;;;;;;;18.52;3.88;;;10.30;84.90;;;;;;5136569;27;20118;-72
2023/01/05 09:04:51;;;;;;;17.70;4.20;;;10.40;85.00;;;;;;5119120;27;20038;-72
2023/01/05 09:07:17;;;;;;;19.58;4.32;;;10.40;85.00;;;;;;5136411;27;20043;-72
2023/01/05 09:09:42;;;;;;;20.00;5.13;;;10.40;84.90;;;;;;5136381;27;20046;-72
2023/01/05 09:12:08;;;;;;;18.42;3.85;;;10.40;84.90;;;;;;5136007;27;20497;-72
2023/01/05 09:14:34;;;;;;;27.92;4.85;;;10.40;84.90;;;;;;5118640;27;20035;-72
2023/01/05 09:17:00;;;;;;;15.77;3.38;;;10.40;84.90;;;;;;5135770;27;20061;-72
2023/01/05 09:19:25;;;;;;;22.27;3.97;;;10.40;84.80;;;;;;5101813;27;20035;-72
2023/01/05 09:21:52;;;;;;;18.65;4.13;;;10.40;84.80;;;;;;5118540;27;20050;-72
2023/01/05 09:24:18;;;;;;;15.20;3.90;;;10.40;84.90;;;;;;5135681;27;20081;-72
2023/01/05 09:26:45;;;;;;;17.40;3.75;;;10.40;84.90;;;;;;5118613;27;20073;-72
2023/01/05 09:29:11;;;;;;;20.42;4.18;;;10.40;85.00;;;;;;5135864;27;20462;-72
2023/01/05 09:31:39;;;;;;;26.77;5.13;;;10.40;85.00;;;;;;5134899;27;20042;-72
2023/01/05 09:34:05;;;;;;;22.45;4.68;;;10.40;84.90;;;;;;5135592;27;20035;-72
2023/01/05 09:36:33;;;;;;;18.88;4.40;;;10.40;84.90;;;;;;5135584;27;20038;-72
2023/01/05 09:38:59;;;;;;;18.83;4.28;;;10.50;84.90;;;;;;5118639;27;20426;-72
2023/01/05 09:41:36;;;;;;;16.75;4.30;;;10.40;84.70;;;;;;5118530;27;20251;-72
2023/01/05 09:44:10;;;;;;;25.02;4.72;;;10.50;84.70;;;;;;5135312;27;20114;-72
2023/01/05 09:46:40;;;;;;;18.63;4.57;;;10.50;84.70;;;;;;5135256;27;20077;-72
2023/01/05 09:49:10;;;;;;;15.82;3.72;;;10.50;84.70;;;;;;5135206;27;20037;-72
2023/01/05 09:51:36;;;;;;;19.42;4.00;;;10.50;84.70;;;;;;5135258;27;20046;-72
2023/01/05 09:54:02;;;;;;;18.40;4.38;;;10.50;84.70;;;;;;5134865;27;20039;-72
2023/01/05 09:56:36;;;;;;;24.33;4.90;;;10.60;84.80;;;;;;5135310;27;20045;-72
2023/01/05 09:59:11;;;;;;;21.83;4.72;;;10.50;84.90;;;;;;5132515;27;20032;-71
2023/01/05 10:01:38;;;;;;;19.02;3.97;;;10.60;84.90;;;;;;5133199;27;20040;-71
2023/01/05 10:04:13;;;;;;;18.40;3.78;;;10.60;84.90;;;;;;5131565;27;20045;-72
2023/01/05 10:06:43;;;;;;;16.92;3.47;;;10.60;84.90;;;;;;5141809;27;20100;-71
2023/01/05 10:09:15;;;;;;;18.55;3.95;;;10.60;84.90;;;;;;5134868;27;20517;-71
2023/01/05 10:14:44;;;;;;;16.48;4.30;;;10.70;84.90;;;;;;5131379;27;20039;-71
2023/01/05 10:17:17;;;;;;;16.48;4.43;;;10.70;84.90;;;;;;5115476;27;20052;-71
2023/01/05 10:19:43;;;;;;;18.08;4.07;;;10.80;84.90;;;;;;5133699;27;20066;-72
2023/01/05 10:22:22;;;;;;;15.90;3.60;;;10.70;84.70;;;;;;5134169;27;20047;-71
2023/01/05 10:24:59;;;;;;;22.58;4.43;;;10.70;84.60;;;;;;5134767;27;20039;-71
2023/01/05 10:27:36;;;;;;;22.17;3.83;;;10.80;84.60;;;;;;5134613;27;20047;-71
2023/01/05 10:30:13;;;;;;;20.75;3.90;;;10.80;84.50;;;;;;5134251;27;20045;-71
2023/01/05 10:33:08;;;;;;;14.15;3.35;;;10.80;84.50;;;;;;5134236;27;20501;-71
2023/01/05 10:35:53;;;;;;;13.95;4.13;;;10.80;84.30;;;;;;5131932;27;20047;-71
2023/01/05 10:38:47;;;;;;;20.23;3.85;;;10.80;84.40;;;;;;5114098;28;20134;-71
2023/01/05 10:41:18;;;;;;;16.05;3.60;;;10.90;84.10;;;;;;5113764;28;20044;-70
2023/01/05 10:43:44;;;;;;;16.58;3.45;;;10.90;84.20;;;;;;5113686;28;20043;-71
2023/01/05 10:46:12;;;;;;;14.52;3.40;;;10.90;84.10;;;;;;5123406;27;20047;-71
2023/01/05 10:48:38;;;;;;;18.60;4.68;;;10.90;84.10;;;;;;5133624;27;20490;-71
2023/01/05 10:51:06;;;;;;;15.27;3.50;;;10.90;84.00;;;;;;5133850;27;20501;-71
2023/01/05 10:53:35;;;;;;;20.38;4.15;;;10.90;84.00;;;;;;5134091;27;20054;-71
2023/01/05 10:56:11;;;;;;;20.73;4.10;;;11.00;84.00;;;;;;5133340;27;20079;-71
2023/01/05 10:58:39;;;;;;;17.80;3.83;;;11.00;83.90;;;;;;5133866;27;20506;-71
2023/01/05 11:01:23;;;;;;;17.65;4.13;;;11.00;83.90;;;;;;5133616;27;20103;-71
2023/01/05 11:03:53;;;;;;;14.55;3.70;;;11.00;83.80;;;;;;5133557;27;20063;-71
2023/01/05 11:06:29;;;;;;;17.63;4.53;;;11.00;83.90;;;;;;5132583;27;20042;-71
2023/01/05 11:09:04;;;;;;;18.60;3.90;;;11.00;83.80;;;;;;5133158;27;20082;-71
2023/01/05 11:11:30;;;;;;;16.33;3.42;;;11.00;83.80;;;;;;5132817;27;20039;-71
2023/01/05 11:13:57;;;;;;;16.75;3.45;;;11.00;83.70;;;;;;5133128;27;20042;-71
2023/01/05 11:16:31;;;;;;;19.92;2.92;;;11.00;83.60;;;;;;5133547;27;20074;-71
2023/01/05 11:19:13;;;;;;;21.45;3.53;;;11.00;83.60;;;;;;5133662;27;20066;-71
2023/01/05 11:21:43;;;;;;;19.02;3.60;;;11.00;83.50;;;;;;5097802;27;20108;-71
2023/01/05 11:24:32;;;;;;;18.60;3.75;;;11.10;83.70;;;;;;5117391;27;20075;-71
2023/01/05 11:27:00;;;;;;;14.05;3.03;;;11.10;83.40;;;;;;5134463;27;20031;-71
2023/01/05 11:29:26;;;;;;;16.02;3.42;;;11.00;83.40;;;;;;5129811;27;20114;-71
2023/01/05 11:32:04;;;;;;;16.67;3.50;;;11.10;83.50;;;;;;5134370;27;20454;-71
2023/01/05 11:34:46;;;;;;;20.60;4.07;;;11.10;83.40;;;;;;5116653;27;20038;-71
2023/01/05 11:37:38;;;;;;;14.23;3.63;;;11.10;83.40;;;;;;5133020;27;20039;-71
2023/01/05 11:40:04;;;;;;;16.95;3.35;;;11.10;83.40;;;;;;5127870;27;20427;-71
2023/01/05 11:42:34;;;;;;;17.48;4.03;;;11.10;83.40;;;;;;5132680;27;20390;-71
2023/01/05 11:45:16;;;;;;;21.92;3.97;;;11.10;83.40;;;;;;5132777;27;20035;-71
2023/01/05 11:47:47;;;;;;;19.38;3.70;;;11.10;83.30;;;;;;5133755;27;20046;-71
2023/01/05 11:50:27;;;;;;;21.08;4.35;;;11.10;83.30;;;;;;5153875;27;20042;-71
2023/01/05 11:52:59;;;;;;;14.82;4.35;;;11.10;83.30;;;;;;5128341;27;20568;-71
2023/01/05 11:55:30;;;;;;;22.50;4.43;;;11.20;83.30;;;;;;5142298;27;20042;-71
2023/01/05 11:58:16;;;;;;;11.30;3.40;;;11.10;83.30;;;;;;5132313;27;20046;-71
2023/01/05 12:01:04;;;;;;;15.60;3.63;;;11.20;83.20;;;;;;5095343;28;20040;-71
2023/01/05 12:03:55;;;;;;;13.32;2.88;;;11.20;83.20;;;;;;5141089;27;20050;-71
2023/01/05 12:06:36;;;;;;;17.13;3.33;;;11.10;83.20;;;;;;5112241;28;20047;-71
2023/01/05 12:09:35;;;;;;;15.07;4.18;;;11.10;83.40;;;;;;5131530;27;20031;-71
2023/01/05 12:12:11;;;;;;;22.48;4.63;;;11.10;83.40;;;;;;5128594;27;20054;-71
2023/01/05 12:15:21;;;;;;;15.20;5.20;;;11.10;83.40;;;;;;5132559;27;20042;-71
2023/01/05 12:18:08;;;;;;;20.15;5.28;;;11.10;83.30;;;;;;5112052;28;20047;-72
2023/01/05 12:20:48;;;;;;;27.13;6.38;;;11.20;83.50;;;;;;5130494;27;20058;-71
2023/01/05 12:23:48;;;;;;;17.75;4.68;;;11.20;83.50;;;;;;5132122;27;20047;-70
2023/01/05 12:26:19;;;;;;;23.98;7.18;;;11.10;83.40;;;;;;5131885;28;20055;-70
2023/01/05 12:29:03;;;;;;;21.75;6.68;;;11.10;83.50;;;;;;5131674;27;20051;-70
2023/01/05 12:31:48;;;;;;;21.33;5.25;;;11.10;83.30;;;;;;5132130;27;20138;-70
2023/01/05 12:34:32;;;;;;;18.70;5.38;;;11.20;83.40;;;;;;5132361;28;20043;-70
2023/01/05 12:37:29;;;;;;;22.83;6.00;;;11.20;83.50;;;;;;5115234;28;20066;-70
2023/01/05 12:40:17;;;;;;;23.30;5.60;;;11.20;83.50;;;;;;5114793;28;20084;-70
2023/01/05 12:43:02;;;;;;;21.00;5.35;;;11.10;83.50;;;;;;5132179;27;20039;-70
2023/01/05 12:45:37;;;;;;;18.58;4.90;;;11.20;83.50;;;;;;5132364;27;20394;-70
2023/01/05 12:48:05;;;;;;;21.90;5.68;;;11.20;83.40;;;;;;5131993;27;20032;-73
2023/01/05 12:50:38;;;;;;;22.00;5.25;;;11.20;83.40;;;;;;5131980;28;20078;-71
2023/01/05 12:53:35;;;;;;;25.23;6.33;;;11.20;83.40;;;;;;5115169;28;20121;-72
2023/01/05 12:56:10;;;;;;;21.50;5.50;;;11.20;83.20;;;;;;5131820;28;20053;-72
2023/01/05 12:58:42;;;;;;;22.60;6.00;;;11.20;83.30;;;;;;5132160;27;20378;-72
2023/01/05 13:01:22;;;;;;;25.65;5.93;;;11.20;83.20;;;;;;5131927;28;20444;-72
2023/01/05 13:03:57;;;;;;;22.85;5.28;;;11.20;83.10;;;;;;5132168;27;20031;-72
2023/01/05 13:06:25;;;;;;;21.27;5.93;;;11.20;83.10;;;;;;5132206;28;20039;-72
2023/01/05 13:09:14;;;;;;;19.98;5.55;;;11.20;83.10;;;;;;5132166;28;20497;-72
2023/01/05 13:11:56;;;;;;;23.30;5.47;;;11.20;82.80;;;;;;5126647;28;20042;-72
2023/01/05 13:14:28;;;;;;;21.83;5.03;;;11.20;82.90;;;;;;5132002;28;20050;-72
2023/01/05 13:16:59;;;;;;;17.08;4.35;;;11.20;82.90;;;;;;5131367;28;20254;-72
2023/01/05 13:19:34;;;;;;;18.90;4.50;;;11.20;82.90;;;;;;5137054;27;20099;-72
2023/01/05 13:22:04;;;;;;;20.42;4.60;;;11.20;82.90;;;;;;5130952;27;20087;-72
2023/01/05 13:24:36;;;;;;;16.85;4.97;;;11.20;82.90;;;;;;5131839;27;20489;-72
2023/01/05 13:27:02;;;;;;;20.60;4.93;;;11.20;82.80;;;;;;5131798;27;20114;-72